createdAt,value
2023-02-19T00:01:43.836Z,3.72
2023-02-19T00:04:20.016Z,3.74
2023-02-19T00:06:49.238Z,3.71
2023-02-19T00:09:19.170Z,3.80
2023-02-19T00:11:47.991Z,3.78
2023-02-19T00:14:18.172Z,3.86
2023-02-19T00:16:46.179Z,3.76
2023-02-19T00:19:20.737Z,3.85
2023-02-19T00:21:50.966Z,3.92
2023-02-19T00:24:19.409Z,3.87
2023-02-19T00:26:47.346Z,3.99
2023-02-19T00:29:17.287Z,3.97
2023-02-19T00:31:45.422Z,4.00
2023-02-19T00:34:14.033Z,4.05
2023-02-19T00:36:42.714Z,4.09
2023-02-19T00:39:14.404Z,4.10
2023-02-19T00:41:41.540Z,4.07
2023-02-19T00:44:11.111Z,4.05
2023-02-19T00:46:40.813Z,3.97
2023-02-19T00:49:16.766Z,3.97
2023-02-19T00:51:44.029Z,3.94
2023-02-19T00:54:12.372Z,3.86
2023-02-19T00:56:40.367Z,3.76
2023-02-19T00:59:07.574Z,3.77
2023-02-19T01:01:34.889Z,3.73
2023-02-19T01:04:02.047Z,3.76
2023-02-19T01:06:30.968Z,3.74
2023-02-19T01:08:58.213Z,3.80
2023-02-19T01:11:25.576Z,3.74
2023-02-19T01:13:52.890Z,3.74
2023-02-19T01:16:22.528Z,3.74
2023-02-19T01:18:49.583Z,3.72
2023-02-19T01:21:21.965Z,3.64
2023-02-19T01:23:50.993Z,3.73
2023-02-19T01:26:20.883Z,3.70
2023-02-19T01:28:48.557Z,3.64
2023-02-19T01:31:24.217Z,3.67
2023-02-19T01:33:55.205Z,3.58
2023-02-19T01:36:22.471Z,3.63
2023-02-19T01:38:50.212Z,3.57
2023-02-19T01:41:21.271Z,3.62
2023-02-19T01:44:14.532Z,3.69
2023-02-19T01:46:43.442Z,3.71
2023-02-19T01:49:22.008Z,3.72
2023-02-19T01:51:56.679Z,3.71
2023-02-19T01:54:27.279Z,3.76
2023-02-19T01:56:56.263Z,3.77
2023-02-19T01:59:23.721Z,3.75
2023-02-19T02:01:52.345Z,3.68
2023-02-19T02:04:19.754Z,3.60
2023-02-19T02:06:56.839Z,3.61
2023-02-19T02:09:46.950Z,3.63
2023-02-19T02:12:14.371Z,3.62
2023-02-19T02:14:47.907Z,3.61
2023-02-19T02:17:26.952Z,3.64
2023-02-19T02:20:03.562Z,3.49
2023-02-19T02:22:41.194Z,3.49
2023-02-19T02:25:37.561Z,3.36
2023-02-19T02:28:30.052Z,3.27
2023-02-19T02:31:08.487Z,3.28
2023-02-19T02:33:59.702Z,3.22
2023-02-19T02:36:32.020Z,3.10
2023-02-19T02:39:00.398Z,3.04
2023-02-19T02:41:28.254Z,2.89
2023-02-19T02:43:55.490Z,2.75
2023-02-19T02:46:33.338Z,2.78
2023-02-19T02:49:07.047Z,2.73
2023-02-19T02:51:43.831Z,2.72
2023-02-19T02:55:02.901Z,2.64
2023-02-19T02:57:32.355Z,2.56
2023-02-19T03:00:00.593Z,2.49
2023-02-19T03:02:31.637Z,2.58
2023-02-19T03:05:25.551Z,2.40
2023-02-19T03:07:56.707Z,2.36
2023-02-19T03:10:33.836Z,2.34
2023-02-19T03:13:25.540Z,2.36
2023-02-19T03:16:20.426Z,2.29
2023-02-19T03:19:12.580Z,2.22
2023-02-19T03:21:44.052Z,2.14
2023-02-19T03:24:31.599Z,2.13
2023-02-19T03:27:01.177Z,2.28
2023-02-19T03:29:35.954Z,2.37
2023-02-19T03:32:25.878Z,2.36
2023-02-19T03:35:19.278Z,2.31
2023-02-19T03:37:58.944Z,2.27
2023-02-19T03:40:30.431Z,2.12
2023-02-19T03:43:00.814Z,2.09
2023-02-19T03:45:46.811Z,2.05
2023-02-19T03:48:32.409Z,1.99
2023-02-19T03:51:13.575Z,1.90
2023-02-19T03:54:02.753Z,1.79
2023-02-19T03:56:59.800Z,1.69
2023-02-19T03:59:38.199Z,1.55
2023-02-19T04:02:12.280Z,1.52
2023-02-19T04:04:58.778Z,1.45
2023-02-19T04:07:30.308Z,1.36
2023-02-19T04:09:57.778Z,1.34
2023-02-19T04:12:25.525Z,1.26
2023-02-19T04:15:00.994Z,1.17
2023-02-19T04:17:36.122Z,1.05
2023-02-19T04:20:09.469Z,1.02
2023-02-19T04:22:38.583Z,0.93
2023-02-19T04:25:06.064Z,0.84
2023-02-19T04:27:37.822Z,0.77
2023-02-19T04:30:07.591Z,0.74
2023-02-19T04:32:35.061Z,0.75
2023-02-19T04:35:02.949Z,0.71
2023-02-19T04:37:30.263Z,0.63
2023-02-19T04:39:57.570Z,0.66
2023-02-19T04:42:25.050Z,0.63
2023-02-19T04:44:52.214Z,0.62
2023-02-19T04:47:20.079Z,0.57
2023-02-19T04:49:47.593Z,0.54
2023-02-19T04:52:15.277Z,0.53
2023-02-19T04:54:43.150Z,0.54
2023-02-19T04:57:11.393Z,0.50
2023-02-19T04:59:39.250Z,0.53
2023-02-19T05:02:06.414Z,0.52
2023-02-19T05:04:36.744Z,0.49
2023-02-19T05:07:04.255Z,0.43
2023-02-19T05:09:31.606Z,0.37
2023-02-19T05:11:59.283Z,0.39
2023-02-19T05:14:27.163Z,0.36
2023-02-19T05:16:54.547Z,0.36
2023-02-19T05:19:21.979Z,0.37
2023-02-19T05:21:49.372Z,0.40
2023-02-19T05:24:17.021Z,0.43
2023-02-19T05:26:45.501Z,0.49
2023-02-19T05:29:13.778Z,0.57
2023-02-19T05:31:41.330Z,0.63
2023-02-19T05:34:09.416Z,0.69
2023-02-19T05:36:38.047Z,0.77
2023-02-19T05:39:06.522Z,0.85
2023-02-19T05:41:34.142Z,0.97
2023-02-19T05:44:01.608Z,1.12
2023-02-19T05:46:30.501Z,1.22
2023-02-19T05:49:01.261Z,1.35
2023-02-19T05:51:29.986Z,1.53
2023-02-19T05:53:58.782Z,1.71
2023-02-19T05:56:42.963Z,1.89
2023-02-19T05:59:18.169Z,2.18
2023-02-19T06:01:46.708Z,2.49
2023-02-19T06:04:15.082Z,2.70
2023-02-19T06:06:44.287Z,2.86
2023-02-19T06:09:12.529Z,3.11
2023-02-19T06:11:41.187Z,3.35
2023-02-19T06:14:09.289Z,3.53
2023-02-19T06:16:37.322Z,3.54
2023-02-19T06:19:05.854Z,3.60
2023-02-19T06:21:34.032Z,3.60
2023-02-19T06:24:06.752Z,3.74
2023-02-19T06:26:33.971Z,3.75
2023-02-19T06:29:01.374Z,3.65
2023-02-19T06:31:30.275Z,3.61
2023-02-19T06:33:57.982Z,3.75
2023-02-19T06:36:25.810Z,4.02
2023-02-19T06:38:54.109Z,4.25
2023-02-19T06:41:22.312Z,4.52
2023-02-19T06:43:50.974Z,4.86
2023-02-19T06:46:19.182Z,5.12
2023-02-19T06:48:47.363Z,5.32
2023-02-19T06:51:25.032Z,5.47
2023-02-19T06:53:56.331Z,5.65
2023-02-19T06:56:29.616Z,5.81
2023-02-19T06:59:00.389Z,6.04
2023-02-19T07:01:28.714Z,6.30
2023-02-19T07:03:57.235Z,6.49
2023-02-19T07:06:27.428Z,6.49
2023-02-19T07:08:57.494Z,6.83
2023-02-19T07:11:25.650Z,7.18
2023-02-19T07:13:57.620Z,7.20
2023-02-19T07:16:28.330Z,7.26
2023-02-19T07:18:59.680Z,7.20
2023-02-19T07:21:27.884Z,7.29
2023-02-19T07:23:55.392Z,7.36
2023-02-19T07:26:23.506Z,7.33
2023-02-19T07:28:52.583Z,7.08
2023-02-19T07:31:22.844Z,6.97
2023-02-19T07:33:51.333Z,6.72
2023-02-19T07:36:20.286Z,6.49
2023-02-19T07:38:48.755Z,6.23
2023-02-19T07:41:17.340Z,6.08
2023-02-19T07:43:45.074Z,6.08
2023-02-19T07:46:15.765Z,6.10
2023-02-19T07:48:45.140Z,5.96
2023-02-19T07:51:19.622Z,6.06
2023-02-19T07:53:48.290Z,6.31
2023-02-19T07:56:16.378Z,6.14
2023-02-19T07:58:44.710Z,6.26
2023-02-19T08:01:40.756Z,6.27
2023-02-19T08:04:09.526Z,6.31
2023-02-19T08:06:37.156Z,6.32
2023-02-19T08:09:06.537Z,6.05
2023-02-19T08:11:52.860Z,6.01
2023-02-19T08:14:20.932Z,5.95
2023-02-19T08:16:52.365Z,6.01
2023-02-19T08:19:20.342Z,6.17
2023-02-19T08:21:48.211Z,6.17
2023-02-19T08:24:15.730Z,6.18
2023-02-19T08:26:43.149Z,6.16
2023-02-19T08:29:11.169Z,6.17
2023-02-19T08:31:39.478Z,6.37
2023-02-19T08:34:07.131Z,6.38
2023-02-19T08:36:34.579Z,6.15
2023-02-19T08:39:02.356Z,6.32
2023-02-19T08:41:30.483Z,6.50
2023-02-19T08:43:58.702Z,6.88
2023-02-19T08:46:26.465Z,7.06
2023-02-19T08:48:54.180Z,7.36
2023-02-19T08:51:21.799Z,7.43
2023-02-19T08:53:49.612Z,7.25
2023-02-19T08:56:18.103Z,7.00
2023-02-19T08:58:46.630Z,6.62
2023-02-19T09:01:19.018Z,6.44
2023-02-19T09:03:46.736Z,6.13
2023-02-19T09:06:20.366Z,6.02
2023-02-19T09:08:48.445Z,5.77
2023-02-19T09:11:15.959Z,5.87
2023-02-19T09:13:44.471Z,5.69
2023-02-19T09:16:12.583Z,5.56
2023-02-19T09:18:40.620Z,5.53
2023-02-19T09:21:08.252Z,5.51
2023-02-19T09:23:36.997Z,5.26
2023-02-19T09:26:08.829Z,5.33
2023-02-19T09:28:36.722Z,5.54
2023-02-19T09:31:09.417Z,5.63
2023-02-19T09:33:37.231Z,5.72
2023-02-19T09:36:05.225Z,5.84
2023-02-19T09:38:32.698Z,6.22
2023-02-19T09:41:06.351Z,6.55
2023-02-19T09:43:34.664Z,6.65
2023-02-19T09:46:12.234Z,6.82
2023-02-19T09:48:40.394Z,7.02
2023-02-19T09:51:11.336Z,7.04
2023-02-19T09:53:44.339Z,7.02
2023-02-19T09:56:12.156Z,6.99
2023-02-19T09:59:00.446Z,7.18
2023-02-19T10:01:34.558Z,7.36
2023-02-19T10:04:02.203Z,7.48
2023-02-19T10:06:30.460Z,7.56
2023-02-19T10:09:31.075Z,7.71
2023-02-19T10:12:00.750Z,7.77
2023-02-19T10:14:57.286Z,7.92
2023-02-19T10:17:30.851Z,7.94
2023-02-19T10:19:59.552Z,7.90
2023-02-19T10:22:27.487Z,8.07
2023-02-19T10:24:57.025Z,8.19
2023-02-19T10:27:30.636Z,8.10
2023-02-19T10:29:59.379Z,8.33
2023-02-19T10:32:27.842Z,8.30
2023-02-19T10:35:13.569Z,8.33
2023-02-19T10:37:46.790Z,8.44
2023-02-19T10:40:21.925Z,8.25
2023-02-19T10:42:52.547Z,8.25
2023-02-19T10:45:30.755Z,8.20
2023-02-19T10:47:58.726Z,8.06
2023-02-19T10:50:31.744Z,7.98
2023-02-19T10:53:01.571Z,7.77
2023-02-19T10:55:37.727Z,7.55
2023-02-19T10:58:40.641Z,7.65
2023-02-19T11:01:14.304Z,7.52
2023-02-19T11:03:42.330Z,7.75
2023-02-19T11:06:12.737Z,7.71
2023-02-19T11:08:51.365Z,7.89
2023-02-19T11:11:37.228Z,7.76
2023-02-19T11:14:24.527Z,7.51
2023-02-19T11:16:57.746Z,7.42
2023-02-19T11:19:37.498Z,7.23
2023-02-19T11:22:39.140Z,7.09
2023-02-19T11:25:19.316Z,6.99
2023-02-19T11:28:21.088Z,7.06
2023-02-19T11:30:49.418Z,6.92
2023-02-19T11:33:16.909Z,6.83
2023-02-19T11:35:45.236Z,6.93
2023-02-19T11:38:15.828Z,7.00
2023-02-19T11:41:05.498Z,7.14
2023-02-19T11:43:58.502Z,7.24
2023-02-19T11:46:57.975Z,7.23
2023-02-19T11:49:28.544Z,7.10
2023-02-19T11:52:01.234Z,7.04
2023-02-19T11:54:51.526Z,7.00
2023-02-19T11:57:49.554Z,7.04
2023-02-19T12:00:31.730Z,6.92
2023-02-19T12:03:23.160Z,6.75
2023-02-19T12:06:02.708Z,6.99
2023-02-19T12:09:13.543Z,7.05
2023-02-19T12:11:56.092Z,6.80
2023-02-19T12:14:44.841Z,6.87
2023-02-19T12:17:50.341Z,6.75
2023-02-19T12:20:55.240Z,6.62
2023-02-19T12:23:44.165Z,6.34
2023-02-19T12:26:27.790Z,6.16
2023-02-19T12:29:31.612Z,6.10
2023-02-19T12:32:41.493Z,6.07
2023-02-19T12:35:26.475Z,5.99
2023-02-19T12:38:15.209Z,5.96
2023-02-19T12:41:03.985Z,6.05
2023-02-19T12:43:33.755Z,5.98
2023-02-19T12:46:17.735Z,6.03
2023-02-19T12:49:06.498Z,5.89
2023-02-19T12:51:42.144Z,6.00
2023-02-19T12:54:35.189Z,5.87
2023-02-19T12:57:18.661Z,5.87
2023-02-19T12:59:50.025Z,5.95
2023-02-19T13:02:34.092Z,5.88
2023-02-19T13:05:41.872Z,5.96
2023-02-19T13:08:34.117Z,5.91
2023-02-19T13:11:16.023Z,5.85
2023-02-19T13:13:49.856Z,5.97
2023-02-19T13:16:19.880Z,6.03
2023-02-19T13:18:58.590Z,5.98
2023-02-19T13:21:58.311Z,6.03
2023-02-19T13:24:34.473Z,6.03
2023-02-19T13:27:11.640Z,6.04
2023-02-19T13:30:10.121Z,6.01
2023-02-19T13:33:03.183Z,6.05
2023-02-19T13:35:56.418Z,6.06
2023-02-19T13:38:24.934Z,5.99
2023-02-19T13:40:58.266Z,6.06
2023-02-19T13:43:35.079Z,5.97
2023-02-19T13:46:12.639Z,5.96
2023-02-19T13:48:42.832Z,5.88
2023-02-19T13:51:13.400Z,5.94
2023-02-19T13:53:48.512Z,5.93
2023-02-19T13:56:37.326Z,5.88
2023-02-19T13:59:25.193Z,5.79
2023-02-19T14:01:55.370Z,5.75
2023-02-19T14:04:43.081Z,5.66
2023-02-19T14:07:11.336Z,5.70
2023-02-19T14:09:42.075Z,5.66
2023-02-19T14:12:10.271Z,5.69
2023-02-19T14:14:39.999Z,5.65
2023-02-19T14:17:10.597Z,5.65
2023-02-19T14:20:02.196Z,5.61
2023-02-19T14:22:48.263Z,5.62
2023-02-19T14:25:24.769Z,5.61
2023-02-19T14:27:54.288Z,5.56
2023-02-19T14:30:24.329Z,5.50
2023-02-19T14:33:02.744Z,5.51
2023-02-19T14:35:43.584Z,5.44
2023-02-19T14:38:36.806Z,5.39
2023-02-19T14:41:06.955Z,5.29
2023-02-19T14:43:36.154Z,5.26
2023-02-19T14:46:25.226Z,5.19
2023-02-19T14:48:53.441Z,5.14
2023-02-19T14:51:51.657Z,5.06
2023-02-19T14:54:30.333Z,4.92
2023-02-19T14:57:00.058Z,4.90
2023-02-19T14:59:29.931Z,4.87
2023-02-19T15:02:03.672Z,4.80
2023-02-19T15:04:37.625Z,4.73
2023-02-19T15:07:09.710Z,4.72
2023-02-19T15:09:48.783Z,4.59
2023-02-19T15:12:23.849Z,4.59
2023-02-19T15:14:56.081Z,4.52
2023-02-19T15:17:30.361Z,4.50
2023-02-19T15:20:03.448Z,4.49
2023-02-19T15:22:35.480Z,4.38
2023-02-19T15:25:05.266Z,4.41
2023-02-19T15:27:36.043Z,4.34
2023-02-19T15:30:04.342Z,4.30
2023-02-19T15:32:32.984Z,4.29
2023-02-19T15:35:03.340Z,4.27
2023-02-19T15:37:35.830Z,4.24
2023-02-19T15:40:08.313Z,4.19
2023-02-19T15:42:38.312Z,4.18
2023-02-19T15:45:26.563Z,4.09
2023-02-19T15:47:57.075Z,3.92
2023-02-19T15:50:30.656Z,3.94
2023-02-19T15:53:07.380Z,3.93
2023-02-19T15:55:56.976Z,3.94
2023-02-19T15:58:32.606Z,3.94
2023-02-19T16:01:09.102Z,3.99
2023-02-19T16:03:37.116Z,3.97
2023-02-19T16:06:10.960Z,3.95
2023-02-19T16:08:40.464Z,3.91
2023-02-19T16:11:28.534Z,3.90
2023-02-19T16:14:18.361Z,3.88
2023-02-19T16:16:49.677Z,3.85
2023-02-19T16:19:47.726Z,3.74
2023-02-19T16:22:19.670Z,3.75
2023-02-19T16:24:50.903Z,3.65
2023-02-19T16:27:39.629Z,3.67
2023-02-19T16:30:26.198Z,3.61
2023-02-19T16:33:39.405Z,3.58
2023-02-19T16:36:22.876Z,3.53
2023-02-19T16:39:08.753Z,3.49
2023-02-19T16:41:48.588Z,3.45
2023-02-19T16:44:22.008Z,3.37
2023-02-19T16:46:51.880Z,3.33
2023-02-19T16:49:20.323Z,3.22
2023-02-19T16:51:48.192Z,3.12
2023-02-19T16:54:16.018Z,3.02
2023-02-19T16:56:43.686Z,2.83
2023-02-19T16:59:11.878Z,2.67
2023-02-19T17:01:39.538Z,2.50
2023-02-19T17:04:11.050Z,2.36
2023-02-19T17:06:40.019Z,2.24
2023-02-19T17:09:08.932Z,2.12
2023-02-19T17:11:37.192Z,2.04
2023-02-19T17:14:04.812Z,1.93
2023-02-19T17:16:40.701Z,1.85
2023-02-19T17:19:19.586Z,1.82
2023-02-19T17:21:47.730Z,1.82
2023-02-19T17:24:15.527Z,1.78
2023-02-19T17:26:43.054Z,1.79
2023-02-19T17:29:15.807Z,1.84
2023-02-19T17:31:43.390Z,1.84
2023-02-19T17:34:10.856Z,1.85
2023-02-19T17:36:38.565Z,1.84
2023-02-19T17:39:12.333Z,1.92
2023-02-19T17:41:39.787Z,1.98
2023-02-19T17:44:10.875Z,1.99
2023-02-19T17:46:41.473Z,1.98
2023-02-19T17:49:11.105Z,2.04
2023-02-19T17:51:38.900Z,2.03
2023-02-19T17:54:08.340Z,2.04
2023-02-19T17:56:36.216Z,2.02
2023-02-19T17:59:04.217Z,1.99
2023-02-19T18:01:32.613Z,2.00
2023-02-19T18:04:00.751Z,1.92
2023-02-19T18:06:28.478Z,1.89
2023-02-19T18:08:56.809Z,1.75
2023-02-19T18:11:24.875Z,1.71
2023-02-19T18:13:53.236Z,1.67
2023-02-19T18:16:22.108Z,1.54
2023-02-19T18:18:49.730Z,1.45
2023-02-19T18:21:17.378Z,1.46
2023-02-19T18:23:46.488Z,1.44
2023-02-19T18:26:19.049Z,1.39
2023-02-19T18:28:46.441Z,1.32
2023-02-19T18:31:13.949Z,1.22
2023-02-19T18:33:41.656Z,1.08
2023-02-19T18:36:12.095Z,1.06
2023-02-19T18:38:39.941Z,0.99
2023-02-19T18:41:11.972Z,0.91
2023-02-19T18:43:41.720Z,0.82
2023-02-19T18:46:10.166Z,0.71
2023-02-19T18:48:37.948Z,0.68
2023-02-19T18:51:06.101Z,0.65
2023-02-19T18:53:33.434Z,0.57
2023-02-19T18:56:02.358Z,0.54
2023-02-19T18:58:30.036Z,0.56
2023-02-19T19:00:59.092Z,0.55
2023-02-19T19:03:26.195Z,0.57
2023-02-19T19:05:53.601Z,0.56
2023-02-19T19:08:21.340Z,0.67
2023-02-19T19:10:48.985Z,0.84
2023-02-19T19:13:16.342Z,0.95
2023-02-19T19:15:45.380Z,1.09
2023-02-19T19:18:12.753Z,1.22
2023-02-19T19:20:42.103Z,1.28
2023-02-19T19:23:09.505Z,1.42
2023-02-19T19:25:37.731Z,1.47
2023-02-19T19:28:05.385Z,1.57
2023-02-19T19:30:33.905Z,1.57
2023-02-19T19:33:01.943Z,1.66
2023-02-19T19:35:32.052Z,1.69
2023-02-19T19:37:59.377Z,1.74
2023-02-19T19:40:26.648Z,1.75
2023-02-19T19:42:54.619Z,1.77
2023-02-19T19:45:21.841Z,1.67
2023-02-19T19:47:49.687Z,1.70
2023-02-19T19:50:18.565Z,1.62
2023-02-19T19:52:45.836Z,1.51
2023-02-19T19:55:13.351Z,1.36
2023-02-19T19:57:41.049Z,1.31
2023-02-19T20:00:10.027Z,1.18
2023-02-19T20:02:40.646Z,1.06
2023-02-19T20:05:08.552Z,0.98
2023-02-19T20:07:36.109Z,0.88
2023-02-19T20:10:04.049Z,0.80
2023-02-19T20:12:31.501Z,0.69
2023-02-19T20:14:59.011Z,0.63
2023-02-19T20:17:29.667Z,0.57
2023-02-19T20:19:56.980Z,0.45
2023-02-19T20:22:24.285Z,0.36
2023-02-19T20:24:53.319Z,0.27
2023-02-19T20:27:21.818Z,0.26
2023-02-19T20:29:49.322Z,0.20
2023-02-19T20:32:20.194Z,0.08
2023-02-19T20:34:48.769Z,0.07
2023-02-19T20:37:16.581Z,0.02
2023-02-19T20:39:44.296Z,-0.05
2023-02-19T20:42:16.615Z,-0.05
2023-02-19T20:44:44.562Z,-0.09
2023-02-19T20:47:11.708Z,-0.11
2023-02-19T20:49:45.091Z,-0.15
2023-02-19T20:52:15.291Z,-0.23
2023-02-19T20:54:43.117Z,-0.34
2023-02-19T20:57:11.052Z,-0.39
2023-02-19T20:59:39.119Z,-0.51
2023-02-19T21:02:12.334Z,-0.53
2023-02-19T21:04:40.925Z,-0.57
2023-02-19T21:07:08.398Z,-0.55
2023-02-19T21:09:36.235Z,-0.57
2023-02-19T21:12:03.774Z,-0.59
2023-02-19T21:14:31.970Z,-0.65
2023-02-19T21:17:00.297Z,-0.62
2023-02-19T21:19:27.609Z,-0.62
2023-02-19T21:21:55.265Z,-0.69
2023-02-19T21:24:23.082Z,-0.67
2023-02-19T21:26:50.539Z,-0.71
2023-02-19T21:29:23.068Z,-0.72
2023-02-19T21:31:52.054Z,-0.76
2023-02-19T21:34:22.907Z,-0.86
2023-02-19T21:36:50.415Z,-0.88
2023-02-19T21:39:21.896Z,-0.90
2023-02-19T21:41:51.341Z,-0.90
2023-02-19T21:44:19.079Z,-0.95
2023-02-19T21:46:46.722Z,-0.99
2023-02-19T21:49:14.129Z,-0.99
2023-02-19T21:51:44.214Z,-1.00
2023-02-19T21:54:21.912Z,-1.00
2023-02-19T21:56:49.593Z,-0.97
2023-02-19T21:59:16.973Z,-1.00
2023-02-19T22:01:44.913Z,-1.05
2023-02-19T22:04:18.766Z,-1.05
2023-02-19T22:06:46.305Z,-1.04
2023-02-19T22:09:16.891Z,-1.07
2023-02-19T22:11:44.053Z,-1.03
2023-02-19T22:14:11.349Z,-1.06
2023-02-19T22:16:38.510Z,-1.06
2023-02-19T22:19:05.632Z,-1.07
2023-02-19T22:21:33.120Z,-1.06
2023-02-19T22:24:02.463Z,-1.09
2023-02-19T22:26:32.795Z,-1.06
2023-02-19T22:29:00.155Z,-1.03
2023-02-19T22:31:28.136Z,-1.06
2023-02-19T22:33:57.099Z,-1.05
2023-02-19T22:36:27.898Z,-1.02
2023-02-19T22:38:55.301Z,-1.06
2023-02-19T22:41:23.400Z,-1.04
2023-02-19T22:43:54.244Z,-1.12
2023-02-19T22:46:24.889Z,-1.06
2023-02-19T22:48:52.452Z,-1.08
2023-02-19T22:51:24.818Z,-1.13
2023-02-19T22:53:58.038Z,-1.12
2023-02-19T22:56:28.281Z,-1.10
2023-02-19T22:58:57.701Z,-1.11
2023-02-19T23:01:25.833Z,-1.18
2023-02-19T23:03:56.708Z,-1.18
2023-02-19T23:06:30.218Z,-1.14
2023-02-19T23:08:59.478Z,-1.13
2023-02-19T23:11:30.217Z,-1.19
2023-02-19T23:13:58.321Z,-1.27
2023-02-19T23:16:26.323Z,-1.26
2023-02-19T23:18:54.872Z,-1.21
2023-02-19T23:21:23.418Z,-1.24
2023-02-19T23:23:50.551Z,-1.21
2023-02-19T23:26:18.998Z,-1.31
2023-02-19T23:28:46.560Z,-1.23
2023-02-19T23:31:14.328Z,-1.30
2023-02-19T23:33:42.029Z,-1.20
2023-02-19T23:36:10.158Z,-1.20
2023-02-19T23:38:37.546Z,-1.29
2023-02-19T23:41:08.700Z,-1.28
2023-02-19T23:43:36.143Z,-1.20
2023-02-19T23:46:04.357Z,-1.18
2023-02-19T23:48:32.167Z,-1.29
2023-02-19T23:50:59.766Z,-1.19
2023-02-19T23:53:27.264Z,-1.27
2023-02-19T23:55:54.797Z,-1.29
2023-02-19T23:58:22.879Z,-1.25
